<?xml version="1.0" encoding="UTF-8" standalone="no" ?>
<gpx xmlns="http://www.topografix.com/GPX/1/1" xmlns:xsi="http://www.w3.org/2001/XMLSchema-instance" xsi:schemaLocation="http://www.topografix.com/GPX/1/1 http://www.topografix.com/GPX/1/1/gpx.xsd" version="1.1" creator="VisuGPX - https://www.visugpx.com">
  <metadata>
    <name>Poiroux_6km</name>
    <desc><![CDATA[gnerando idor:7850189]]></desc>
  </metadata>
  <trk>
    <name><![CDATA[poiroux_5.8km-7850189]]></name>
    <extensions>
      <line xmlns="http://www.topografix.com/GPX/gpx_style/0/2">
        <color>0000FF</color>
        <width>4</width>
      </line>
    </extensions>
    <trkseg>
      <trkpt lat="46.50581" lon="-1.53445">
        <ele>39</ele>
        <time>2023-11-11T06:17:49Z</time>
      </trkpt>
      <trkpt lat="46.50515" lon="-1.53452">
        <ele>38</ele>
        <time>2023-11-11T06:19:17Z</time>
      </trkpt>
      <trkpt lat="46.50492" lon="-1.53529">
        <ele>36</ele>
        <time>2023-11-11T06:20:34Z</time>
      </trkpt>
      <trkpt lat="46.50613" lon="-1.53619">
        <ele>37</ele>
        <time>2023-11-11T06:23:36Z</time>
      </trkpt>
      <trkpt lat="46.5064" lon="-1.53817">
        <ele>37</ele>
        <time>2023-11-11T06:26:41Z</time>
      </trkpt>
      <trkpt lat="46.50551" lon="-1.53903">
        <ele>42</ele>
        <time>2023-11-11T06:29:04Z</time>
      </trkpt>
      <trkpt lat="46.50501" lon="-1.54173">
        <ele>33</ele>
        <time>2023-11-11T06:33:21Z</time>
      </trkpt>
      <trkpt lat="46.50394" lon="-1.54298">
        <ele>39</ele>
        <time>2023-11-11T06:36:24Z</time>
      </trkpt>
      <trkpt lat="46.50377" lon="-1.54409">
        <ele>39</ele>
        <time>2023-11-11T06:38:08Z</time>
      </trkpt>
      <trkpt lat="46.50415" lon="-1.54538">
        <ele>35</ele>
        <time>2023-11-11T06:40:17Z</time>
      </trkpt>
      <trkpt lat="46.50344" lon="-1.54607">
        <ele>35</ele>
        <time>2023-11-11T06:42:11Z</time>
      </trkpt>
      <trkpt lat="46.50253" lon="-1.54624">
        <ele>37</ele>
        <time>2023-11-11T06:44:14Z</time>
      </trkpt>
      <trkpt lat="46.50167" lon="-1.54731">
        <ele>39</ele>
        <time>2023-11-11T06:46:45Z</time>
      </trkpt>
      <trkpt lat="46.50108" lon="-1.54804">
        <ele>37</ele>
        <time>2023-11-11T06:48:28Z</time>
      </trkpt>
      <trkpt lat="46.50001" lon="-1.54748">
        <ele>38</ele>
        <time>2023-11-11T06:51:00Z</time>
      </trkpt>
      <trkpt lat="46.49836" lon="-1.54813">
        <ele>35</ele>
        <time>2023-11-11T06:54:48Z</time>
      </trkpt>
      <trkpt lat="46.49747" lon="-1.54941">
        <ele>39</ele>
        <time>2023-11-11T06:57:35Z</time>
      </trkpt>
      <trkpt lat="46.49665" lon="-1.55053">
        <ele>35</ele>
        <time>2023-11-11T07:00:05Z</time>
      </trkpt>
      <trkpt lat="46.49544" lon="-1.55061">
        <ele>39</ele>
        <time>2023-11-11T07:02:47Z</time>
      </trkpt>
      <trkpt lat="46.49476" lon="-1.55194">
        <ele>34</ele>
        <time>2023-11-11T07:05:19Z</time>
      </trkpt>
      <trkpt lat="46.49334" lon="-1.55152">
        <ele>36</ele>
        <time>2023-11-11T07:08:33Z</time>
      </trkpt>
      <trkpt lat="46.49225" lon="-1.55246">
        <ele>32</ele>
        <time>2023-11-11T07:11:22Z</time>
      </trkpt>
      <trkpt lat="46.49127" lon="-1.55229">
        <ele>32</ele>
        <time>2023-11-11T07:13:33Z</time>
      </trkpt>
      <trkpt lat="46.49118" lon="-1.55332">
        <ele>29</ele>
        <time>2023-11-11T07:15:09Z</time>
      </trkpt>
      <trkpt lat="46.49189" lon="-1.55409">
        <ele>35</ele>
        <time>2023-11-11T07:17:07Z</time>
      </trkpt>
      <trkpt lat="46.49313" lon="-1.55297">
        <ele>33</ele>
        <time>2023-11-11T07:20:22Z</time>
      </trkpt>
      <trkpt lat="46.49411" lon="-1.55285">
        <ele>33</ele>
        <time>2023-11-11T07:22:33Z</time>
      </trkpt>
      <trkpt lat="46.49514" lon="-1.55323">
        <ele>38</ele>
        <time>2023-11-11T07:24:55Z</time>
      </trkpt>
      <trkpt lat="46.49591" lon="-1.55164">
        <ele>34</ele>
        <time>2023-11-11T07:27:54Z</time>
      </trkpt>
      <trkpt lat="46.49744" lon="-1.55173">
        <ele>39</ele>
        <time>2023-11-11T07:31:18Z</time>
      </trkpt>
      <trkpt lat="46.49815" lon="-1.55018">
        <ele>39</ele>
        <time>2023-11-11T07:34:09Z</time>
      </trkpt>
      <trkpt lat="46.49904" lon="-1.54873">
        <ele>34</ele>
        <time>2023-11-11T07:37:07Z</time>
      </trkpt>
      <trkpt lat="46.49833" lon="-1.54765">
        <ele>39</ele>
        <time>2023-11-11T07:39:25Z</time>
      </trkpt>
      <trkpt lat="46.49874" lon="-1.54469">
        <ele>50</ele>
        <time>2023-11-11T07:44:02Z</time>
      </trkpt>
      <trkpt lat="46.49851" lon="-1.54164">
        <ele>59</ele>
        <time>2023-11-11T07:48:44Z</time>
      </trkpt>
      <trkpt lat="46.4988" lon="-1.54199">
        <ele>58</ele>
        <time>2023-11-11T07:49:34Z</time>
      </trkpt>
      <trkpt lat="46.49883" lon="-1.54199">
        <ele>58</ele>
        <time>2023-11-11T07:49:38Z</time>
      </trkpt>
      <trkpt lat="46.50019" lon="-1.54216">
        <ele>59</ele>
        <time>2023-11-11T07:52:40Z</time>
      </trkpt>
      <trkpt lat="46.50111" lon="-1.54246">
        <ele>60</ele>
        <time>2023-11-11T07:54:46Z</time>
      </trkpt>
      <trkpt lat="46.50253" lon="-1.53997">
        <ele>62</ele>
        <time>2023-11-11T07:59:43Z</time>
      </trkpt>
      <trkpt lat="46.50297" lon="-1.53791">
        <ele>52</ele>
        <time>2023-11-11T08:03:01Z</time>
      </trkpt>
      <trkpt lat="46.50388" lon="-1.53564">
        <ele>39</ele>
        <time>2023-11-11T08:07:03Z</time>
      </trkpt>
      <trkpt lat="46.50504" lon="-1.53564">
        <ele>36</ele>
        <time>2023-11-11T08:09:37Z</time>
      </trkpt>
      <trkpt lat="46.50492" lon="-1.53431">
        <ele>39</ele>
        <time>2023-11-11T08:11:41Z</time>
      </trkpt>
      <trkpt lat="46.50572" lon="-1.53435">
        <ele>39</ele>
        <time>2023-11-11T08:13:27Z</time>
      </trkpt>
    </trkseg>
  </trk>
</gpx>